Time;durP1;ratioP1;P1;durP2;ratioP2;P2;SDS_P1;SDS_P2;PMS_P1;PMS_P2;Temp;Humidity;BMP_temperature;BMP_pressure;BME280_temperature;BME280_humidity;BME280_pressure;Samples;Min_cycle;Max_cycle;Signal;HPM_P1;HPM_P2
2023/04/02 00:02:19;;;;;;;33.90;32.30;;;;;;;8.03;91.40;97334.41;4990794;28;20067;-77
2023/04/02 00:05:15;;;;;;;36.92;35.05;;;;;;;8.00;91.02;97330.38;5004515;28;20037;-77
2023/04/02 00:07:43;;;;;;;35.50;33.85;;;;;;;7.86;92.27;97334.47;5003900;28;20092;-77
2023/04/02 00:10:28;;;;;;;35.97;34.28;;;;;;;8.02;92.15;97335.47;5007787;28;20041;-75
2023/04/02 00:13:04;;;;;;;38.28;36.58;;;;;;;8.03;91.06;97327.16;5003751;28;20037;-78
2023/04/02 00:15:30;;;;;;;38.95;37.05;;;;;;;8.03;91.26;97335.22;5001885;28;20029;-77
2023/04/02 00:17:56;;;;;;;37.63;35.85;;;;;;;8.02;91.53;97341.66;5003836;28;20541;-77
2023/04/02 00:20:23;;;;;;;41.13;39.35;;;;;;;8.15;90.74;97338.59;4989668;28;20041;-77
2023/04/02 00:22:48;;;;;;;40.22;38.33;;;;;;;8.19;90.68;97350.44;5007145;28;20129;-77
2023/04/02 00:25:14;;;;;;;38.10;36.08;;;;;;;8.23;91.35;97359.63;5014906;28;20125;-77
2023/04/02 00:27:40;;;;;;;37.20;35.40;;;;;;;8.19;90.77;97355.78;5003695;28;20387;-77
2023/04/02 00:30:06;;;;;;;38.35;36.38;;;;;;;7.96;91.11;97356.03;5022540;28;20068;-76
2023/04/02 00:32:33;;;;;;;38.33;36.33;;;;;;;7.95;91.32;97354.44;5026695;28;20026;-77
2023/04/02 00:34:58;;;;;;;37.17;35.28;;;;;;;8.11;90.59;97345.53;5008697;28;20128;-77
2023/04/02 00:37:27;;;;;;;39.08;37.08;;;;;;;8.00;91.95;97365.22;5005385;28;20064;-77
2023/04/02 00:40:00;;;;;;;39.75;37.85;;;;;;;8.06;91.48;97364.22;4987985;28;20057;-78
2023/04/02 00:42:28;;;;;;;37.92;35.83;;;;;;;7.91;91.86;97374.72;4991760;28;20034;-77
2023/04/02 00:44:54;;;;;;;36.97;35.03;;;;;;;7.85;92.13;97359.66;5010311;28;20031;-78
2023/04/02 00:47:33;;;;;;;41.45;39.35;;;;;;;8.12;91.31;97365.91;5003507;28;20503;-78
2023/04/02 00:50:04;;;;;;;38.65;36.67;;;;;;;7.88;91.53;97359.16;5001738;28;20030;-77
2023/04/02 00:52:30;;;;;;;38.78;36.70;;;;;;;7.97;92.09;97367.56;4981716;28;20041;-77
2023/04/02 00:55:13;;;;;;;38.20;36.28;;;;;;;7.91;92.10;97371.25;4996982;28;20095;-78
2023/04/02 00:57:43;;;;;;;38.30;36.22;;;;;;;7.95;91.60;97375.06;5003491;28;20373;-77
2023/04/02 01:00:10;;;;;;;37.33;35.40;;;;;;;7.88;91.75;97374.44;5007711;28;20054;-79
2023/04/02 01:02:39;;;;;;;38.95;37.05;;;;;;;7.89;92.12;97371.50;5018204;28;20022;-78
2023/04/02 01:05:13;;;;;;;38.13;36.22;;;;;;;7.90;91.50;97378.47;5005642;28;20037;-78
2023/04/02 01:08:14;;;;;;;36.63;34.72;;;;;;;7.88;91.26;97375.25;5034069;28;20040;-78
2023/04/02 01:11:25;;;;;;;37.83;35.90;;;;;;;8.13;90.80;97378.25;5015007;28;20049;-78
2023/04/02 01:14:08;;;;;;;38.55;36.65;;;;;;;7.98;91.40;97375.34;5021941;28;20045;-78
2023/04/02 01:17:14;;;;;;;40.65;38.45;;;;;;;8.11;91.70;97385.75;5029802;28;20037;-77
2023/04/02 01:19:47;;;;;;;37.40;35.35;;;;;;;7.91;91.44;97390.81;4997754;28;20041;-78
2023/04/02 01:22:33;;;;;;;39.67;37.50;;;;;;;8.22;90.66;97390.16;4996422;28;20037;-77
2023/04/02 01:24:59;;;;;;;42.45;40.35;;;;;;;8.16;91.26;97391.19;4996975;28;20101;-79
2023/04/02 01:27:29;;;;;;;41.15;38.95;;;;;;;8.04;91.35;97390.47;5004650;28;20064;-78
2023/04/02 01:29:56;;;;;;;44.60;42.10;;;;;;;7.97;90.88;97384.47;5006415;28;20026;-78
2023/04/02 01:32:24;;;;;;;45.70;43.40;;;;;;;7.88;90.76;97394.00;5012687;28;20026;-78
2023/04/02 01:34:50;;;;;;;43.70;41.60;;;;;;;8.01;91.03;97396.31;5007873;28;20037;-77
2023/04/02 01:37:26;;;;;;;43.03;40.92;;;;;;;8.19;90.54;97408.66;5004250;28;20116;-77
2023/04/02 01:40:22;;;;;;;44.38;42.08;;;;;;;8.11;91.19;97403.69;5002749;28;20376;-77
2023/04/02 01:42:53;;;;;;;44.95;42.58;;;;;;;8.06;90.25;97414.34;5003304;28;20044;-77
2023/04/02 01:45:22;;;;;;;44.25;41.80;;;;;;;8.17;90.20;97411.56;5013270;28;20072;-77
2023/04/02 01:47:48;;;;;;;42.92;40.38;;;;;;;7.98;91.62;97415.56;5024709;28;20049;-78
2023/04/02 01:50:20;;;;;;;45.63;43.10;;;;;;;7.99;91.12;97419.06;4997620;28;20025;-78
2023/04/02 01:52:53;;;;;;;44.88;42.47;;;;;;;8.02;91.44;97408.69;5006246;28;20447;-78
2023/04/02 01:55:25;;;;;;;44.78;42.33;;;;;;;8.07;90.20;97406.06;5006407;28;20030;-78
2023/04/02 01:57:51;;;;;;;45.55;43.13;;;;;;;8.07;90.20;97415.97;5009095;28;20495;-79
2023/04/02 02:00:18;;;;;;;44.65;42.15;;;;;;;8.13;90.43;97417.66;4981950;28;20105;-78
2023/04/02 02:02:48;;;;;;;46.00;43.67;;;;;;;8.19;90.23;97414.78;5010103;28;20095;-78
2023/04/02 02:05:16;;;;;;;43.97;41.67;;;;;;;7.96;91.02;97409.66;5002943;28;20087;-79
2023/04/02 02:07:44;;;;;;;44.67;42.33;;;;;;;7.80;91.55;97413.19;5000215;28;20053;-79
2023/04/02 02:10:14;;;;;;;47.63;44.85;;;;;;;7.82;91.39;97421.78;5000361;28;20029;-78
2023/04/02 02:12:42;;;;;;;43.83;41.17;;;;;;;7.87;91.24;97429.91;5019167;28;20496;-78
2023/04/02 02:15:15;;;;;;;42.92;40.47;;;;;;;7.91;90.62;97427.56;4989017;28;20022;-78
2023/04/02 02:17:40;;;;;;;42.45;40.15;;;;;;;8.11;91.42;97428.66;5010585;28;20040;-78
2023/04/02 02:20:11;;;;;;;45.40;42.78;;;;;;;8.20;90.42;97434.38;5024164;28;20030;-78
2023/04/02 02:22:39;;;;;;;43.38;41.08;;;;;;;7.99;91.47;97441.34;5026436;28;20443;-77
2023/04/02 02:25:10;;;;;;;46.55;44.25;;;;;;;7.97;91.39;97443.47;5004549;28;20038;-78
2023/04/02 02:27:46;;;;;;;44.25;41.60;;;;;;;7.96;91.83;97444.50;5004635;28;20057;-78
2023/04/02 02:30:12;;;;;;;43.17;40.72;;;;;;;7.84;91.76;97451.81;5002198;28;20440;-78
2023/04/02 02:32:42;;;;;;;43.92;41.53;;;;;;;7.70;92.64;97447.88;5014043;28;20068;-77
2023/04/02 02:35:18;;;;;;;43.80;41.30;;;;;;;7.82;92.44;97450.47;4994093;28;20045;-76
2023/04/02 02:37:47;;;;;;;45.00;42.45;;;;;;;7.77;92.33;97453.84;4990570;28;20033;-75
2023/04/02 02:40:22;;;;;;;45.13;42.63;;;;;;;7.92;91.44;97454.09;5015973;28;20055;-75
2023/04/02 02:42:50;;;;;;;42.85;40.65;;;;;;;7.94;91.31;97465.38;5003377;28;20029;-75
2023/04/02 02:45:21;;;;;;;47.08;44.30;;;;;;;8.07;91.56;97464.25;5000144;28;20026;-76
2023/04/02 02:47:47;;;;;;;45.70;43.08;;;;;;;8.07;91.16;97465.06;5004431;28;20081;-76
2023/04/02 02:50:21;;;;;;;48.35;45.65;;;;;;;7.99;91.17;97465.47;5008425;28;20026;-78
2023/04/02 02:52:56;;;;;;;46.35;43.55;;;;;;;7.75;92.06;97471.28;5006739;28;20033;-76
2023/04/02 02:55:31;;;;;;;47.22;44.63;;;;;;;7.90;92.21;97472.31;4993746;28;20038;-77
2023/04/02 02:58:32;;;;;;;46.90;44.50;;;;;;;7.97;90.81;97469.44;4999098;28;20025;-78
2023/04/02 03:01:05;;;;;;;44.80;42.30;;;;;;;7.89;91.06;97484.06;5000033;28;20357;-78
2023/04/02 03:03:33;;;;;;;45.38;42.67;;;;;;;7.85;91.72;97474.91;5009867;28;20038;-78
2023/04/02 03:06:07;;;;;;;45.90;43.28;;;;;;;7.93;91.16;97485.22;5003237;28;20111;-78
2023/04/02 03:08:35;;;;;;;43.83;41.20;;;;;;;7.91;92.66;97487.31;4996970;28;20034;-77
2023/04/02 03:11:08;;;;;;;46.38;43.58;;;;;;;7.87;91.45;97488.06;5022995;28;20025;-78
2023/04/02 03:13:34;;;;;;;46.92;44.30;;;;;;;7.95;91.49;97493.03;5008973;28;20037;-78
2023/04/02 03:16:11;;;;;;;45.20;42.28;;;;;;;7.87;92.05;97491.56;4989538;28;20046;-79
2023/04/02 03:18:43;;;;;;;45.70;42.97;;;;;;;8.10;91.36;97502.09;4996394;28;20056;-78
2023/04/02 03:21:31;;;;;;;44.08;41.38;;;;;;;8.05;91.07;97510.06;5009412;28;20038;-78
2023/04/02 03:24:03;;;;;;;45.90;43.35;;;;;;;8.15;90.81;97496.81;5008544;28;20134;-79
2023/04/02 03:26:35;;;;;;;45.70;43.13;;;;;;;7.96;92.00;97495.44;4990106;28;20030;-77
2023/04/02 03:29:10;;;;;;;49.30;46.20;;;;;;;7.94;91.71;97508.28;5007639;28;20092;-76
2023/04/02 03:31:43;;;;;;;45.47;42.43;;;;;;;8.09;91.13;97505.84;4991965;28;20064;-78
2023/04/02 03:34:28;;;;;;;44.17;41.53;;;;;;;7.94;92.04;97513.66;5002268;28;20359;-76
2023/04/02 03:37:00;;;;;;;45.75;42.75;;;;;;;7.97;91.41;97521.22;5006489;28;20525;-77
2023/04/02 03:39:36;;;;;;;42.95;40.17;;;;;;;7.83;91.41;97519.91;5026892;28;20037;-78
2023/04/02 03:42:06;;;;;;;43.03;40.15;;;;;;;7.92;92.08;97523.81;4998618;28;20030;-77
2023/04/02 03:44:37;;;;;;;45.78;42.78;;;;;;;7.95;91.56;97527.88;5023859;28;20037;-76
2023/04/02 03:47:10;;;;;;;44.17;41.38;;;;;;;8.04;91.25;97521.84;5020609;28;20034;-77
2023/04/02 03:49:48;;;;;;;45.70;42.88;;;;;;;7.98;91.04;97530.88;5022564;28;20033;-77
2023/04/02 03:52:22;;;;;;;45.90;43.17;;;;;;;8.02;91.33;97529.34;5013288;28;20121;-78
2023/04/02 03:54:47;;;;;;;45.47;42.42;;;;;;;7.93;91.47;97532.66;5031604;28;20044;-76
2023/04/02 03:57:42;;;;;;;48.45;45.10;;;;;;;7.93;91.34;97532.66;5004906;28;20025;-77
2023/04/02 04:00:53;;;;;;;47.00;43.50;;;;;;;7.94;92.07;97535.09;5011985;28;20038;-77
2023/04/02 04:03:28;;;;;;;46.33;43.03;;;;;;;8.00;91.66;97544.03;5027188;28;20066;-77
2023/04/02 04:06:05;;;;;;;46.47;43.45;;;;;;;7.91;92.79;97546.28;5016508;28;20503;-78
2023/04/02 04:08:43;;;;;;;45.25;41.65;;;;;;;7.98;92.32;97559.56;4996170;28;20103;-78
2023/04/02 04:11:13;;;;;;;46.30;43.30;;;;;;;8.15;91.57;97558.50;5005508;28;20037;-77
2023/04/02 04:13:44;;;;;;;48.08;44.38;;;;;;;8.04;91.50;97556.72;5024175;28;20089;-77
2023/04/02 04:16:21;;;;;;;47.05;43.75;;;;;;;8.00;91.89;97560.94;5004233;28;20056;-77
2023/04/02 04:18:56;;;;;;;47.90;44.70;;;;;;;7.96;92.00;97559.78;5002389;28;20081;-77
2023/04/02 04:21:38;;;;;;;46.80;43.35;;;;;;;7.89;91.98;97569.84;5010014;28;20030;-77
2023/04/02 04:24:22;;;;;;;50.05;46.03;;;;;;;7.98;91.53;97573.75;5002486;28;20037;-77
2023/04/02 04:26:54;;;;;;;49.50;45.80;;;;;;;7.99;91.54;97577.25;5007960;28;20124;-77
2023/04/02 04:29:55;;;;;;;48.17;44.90;;;;;;;8.20;90.58;97577.34;5004749;28;20369;-76
2023/04/02 04:32:26;;;;;;;49.95;46.20;;;;;;;8.22;91.09;97591.31;5014276;28;20549;-76
2023/04/02 04:35:28;;;;;;;47.83;44.63;;;;;;;8.22;90.99;97590.50;5023186;28;20041;-76
2023/04/02 04:38:06;;;;;;;49.42;45.67;;;;;;;8.22;91.49;97590.50;5009558;28;20025;-76
2023/04/02 04:40:35;;;;;;;48.83;45.45;;;;;;;8.29;91.06;97596.56;4998133;28;20072;-77
2023/04/02 04:43:08;;;;;;;53.55;49.63;;;;;;;8.25;90.94;97598.91;5001080;28;20092;-76
2023/04/02 04:45:40;;;;;;;53.33;49.45;;;;;;;8.29;90.48;97602.75;4984282;28;20061;-74
2023/04/02 04:48:14;;;;;;;56.58;51.67;;;;;;;8.02;91.45;97601.72;5020480;28;20438;-77
2023/04/02 04:50:49;;;;;;;47.63;44.53;;;;;;;8.25;90.42;97611.50;4985865;28;20022;-76
2023/04/02 04:53:19;;;;;;;50.78;47.25;;;;;;;8.25;90.68;97612.31;4991507;28;20030;-77
2023/04/02 04:55:51;;;;;;;63.65;58.63;;;;;;;8.27;90.43;97615.59;4998170;28;20052;-77
2023/04/02 04:58:21;;;;;;;51.08;47.60;;;;;;;8.39;90.23;97623.56;4984552;28;20120;-77
2023/04/02 05:01:01;;;;;;;53.63;49.85;;;;;;;8.37;90.81;97620.31;4997163;28;20049;-76
2023/04/02 05:03:29;;;;;;;52.63;48.92;;;;;;;8.33;90.11;97630.69;5010694;28;20166;-76
2023/04/02 05:06:00;;;;;;;52.65;48.80;;;;;;;8.41;90.87;97629.47;4997326;28;20022;-74
2023/04/02 05:08:31;;;;;;;54.15;50.60;;;;;;;8.50;89.83;97624.50;4989670;28;20040;-75
2023/04/02 05:11:03;;;;;;;52.38;48.55;;;;;;;8.44;90.39;97631.69;4995555;28;20030;-76
2023/04/02 05:13:32;;;;;;;56.83;51.22;;;;;;;8.20;90.40;97641.72;4997125;28;20256;-78
2023/04/02 05:16:16;;;;;;;47.90;45.00;;;;;;;7.88;90.91;97653.22;5016716;28;20456;-77
2023/04/02 05:18:47;;;;;;;41.08;39.47;;;;;;;7.75;89.70;97654.31;5014465;28;20045;-77
2023/04/02 05:21:23;;;;;;;41.47;39.88;;;;;;;7.69;88.46;97666.00;5011987;28;20173;-76
2023/04/02 05:23:58;;;;;;;;;;;;;;;7.53;87.29;97672.09;4996912;28;20144;-77
2023/04/02 05:26:30;;;;;;;43.63;41.92;;;;;;;7.39;85.59;97676.09;5005908;28;19920;-77
2023/04/02 05:29:08;;;;;;;42.95;41.25;;;;;;;7.43;86.81;97678.06;4996916;28;20026;-75
2023/04/02 05:31:47;;;;;;;42.90;41.20;;;;;;;7.34;86.28;97679.50;4998718;28;20026;-78
2023/04/02 05:34:22;;;;;;;40.35;38.75;;;;;;;7.34;85.46;97698.25;4998523;28;20072;-77
2023/04/02 05:36:47;;;;;;;37.72;36.33;;;;;;;7.31;85.78;97700.56;5026256;28;20029;-77
2023/04/02 05:39:20;;;;;;;39.05;37.55;;;;;;;7.27;85.56;97704.78;5011706;28;20026;-77
2023/04/02 05:41:59;;;;;;;35.80;34.40;;;;;;;7.01;85.58;97705.25;5011690;28;20037;-77
2023/04/02 05:44:44;;;;;;;35.33;34.00;;;;;;;7.04;85.74;97710.97;4991339;28;20377;-77
2023/04/02 05:47:23;;;;;;;35.15;33.85;;;;;;;6.96;85.70;97722.84;5002267;28;20033;-76
2023/04/02 05:50:10;;;;;;;35.85;34.47;;;;;;;7.07;85.23;97720.41;5015760;28;20041;-77
2023/04/02 05:52:46;;;;;;;34.20;32.80;;;;;;;7.03;84.97;97729.94;4986612;28;20180;-77
2023/04/02 05:55:11;;;;;;;34.53;33.22;;;;;;;6.93;85.79;97731.31;5012214;28;20045;-77
2023/04/02 05:57:45;;;;;;;31.80;30.60;;;;;;;6.90;84.81;97739.84;5011712;28;20033;-77
2023/04/02 06:00:38;;;;;;;33.50;32.20;;;;;;;7.01;84.62;97740.06;4995096;28;20061;-76
2023/04/02 06:03:15;;;;;;;30.52;29.27;;;;;;;6.84;84.86;97743.44;4991403;28;20405;-77
2023/04/02 06:05:43;;;;;;;33.88;32.58;;;;;;;6.83;84.95;97757.06;5005599;28;20622;-77
2023/04/02 06:08:19;;;;;;;36.33;34.92;;;;;;;6.86;85.00;97762.75;5014654;28;20087;-77
2023/04/02 06:10:53;;;;;;;34.15;32.85;;;;;;;6.98;84.79;97774.28;4999964;28;20037;-77
2023/04/02 06:13:20;;;;;;;31.88;30.63;;;;;;;6.93;84.65;97774.16;4993275;28;20026;-78
2023/04/02 06:15:47;;;;;;;33.92;32.63;;;;;;;7.03;85.20;97778.94;4990319;28;20359;-78
2023/04/02 06:18:25;;;;;;;37.20;35.80;;;;;;;6.95;85.70;97781.97;5019260;28;20056;-77
2023/04/02 06:20:51;;;;;;;34.15;32.75;;;;;;;7.03;84.64;97791.50;5016376;28;20406;-77
2023/04/02 06:23:32;;;;;;;33.72;32.42;;;;;;;6.88;84.27;97792.75;5016033;28;20028;-78
2023/04/02 06:26:30;;;;;;;35.88;34.47;;;;;;;6.74;84.81;97793.22;5016002;28;20041;-78
2023/04/02 06:29:10;;;;;;;35.15;33.85;;;;;;;6.72;85.75;97801.47;4995492;28;20042;-77
2023/04/02 06:31:44;;;;;;;38.30;36.80;;;;;;;6.76;86.41;97810.69;5015220;28;20057;-78
2023/04/02 06:34:16;;;;;;;41.30;39.70;;;;;;;6.58;86.31;97805.38;5000670;28;20055;-78
2023/04/02 06:36:50;;;;;;;39.90;38.35;;;;;;;6.52;85.85;97806.31;5011243;28;20507;-77
2023/04/02 06:39:19;;;;;;;39.78;38.28;;;;;;;6.68;86.28;97824.38;5009809;28;20038;-78
2023/04/02 06:41:53;;;;;;;36.30;34.90;;;;;;;6.56;84.68;97820.06;4999642;28;20030;-78
2023/04/02 06:44:36;;;;;;;33.83;32.53;;;;;;;6.57;84.36;97838.53;4994027;28;20072;-78
2023/04/02 06:47:21;;;;;;;34.15;32.80;;;;;;;6.35;85.55;97842.75;5002419;28;20507;-78
2023/04/02 06:49:51;;;;;;;35.30;33.95;;;;;;;6.41;83.82;97849.88;5015598;28;20029;-77
2023/04/02 06:52:23;;;;;;;29.67;28.58;;;;;;;6.22;83.80;97856.31;5032301;28;20068;-78
2023/04/02 06:54:48;;;;;;;32.33;31.10;;;;;;;6.38;83.56;97844.97;5015464;28;20095;-78
2023/04/02 06:57:15;;;;;;;29.10;28.00;;;;;;;6.27;84.09;97867.13;5015495;28;20028;-78
2023/04/02 06:59:43;;;;;;;31.42;30.23;;;;;;;6.24;84.06;97870.25;4999706;28;20034;-78
2023/04/02 07:02:22;;;;;;;26.17;25.15;;;;;;;6.32;82.92;97871.81;5001359;28;20125;-77
2023/04/02 07:04:47;;;;;;;26.55;25.55;;;;;;;6.16;83.41;97878.59;5019974;28;20049;-78
2023/04/02 07:07:15;;;;;;;27.00;26.00;;;;;;;6.16;83.04;97894.63;5014351;28;20434;-77
2023/04/02 07:09:43;;;;;;;23.15;22.25;;;;;;;6.20;82.51;97880.59;4996046;28;20097;-77
2023/04/02 07:12:13;;;;;;;29.52;28.40;;;;;;;6.25;83.58;97898.63;4979508;28;20026;-78
2023/04/02 07:14:39;;;;;;;30.35;29.20;;;;;;;6.36;83.73;97905.91;4997969;28;20029;-78
2023/04/02 07:17:05;;;;;;;30.92;29.73;;;;;;;6.24;83.75;97902.34;5011017;28;20087;-77
2023/04/02 07:19:30;;;;;;;25.90;24.90;;;;;;;6.24;83.41;97907.69;5019202;28;20465;-78
2023/04/02 07:21:57;;;;;;;32.03;30.63;;;;;;;6.39;83.80;97900.13;5003716;28;20030;-78
2023/04/02 07:24:27;;;;;;;34.10;32.72;;;;;;;6.40;83.55;97911.59;5020545;28;20037;-78
2023/04/02 07:26:52;;;;;;;28.02;26.92;;;;;;;6.47;82.36;97918.50;5021143;28;20040;-77
2023/04/02 07:29:18;;;;;;;29.58;28.38;;;;;;;6.53;83.96;97922.16;5036690;28;20395;-78
2023/04/02 07:31:44;;;;;;;27.88;26.77;;;;;;;6.42;82.57;97929.06;5036282;28;20045;-77
2023/04/02 07:34:10;;;;;;;26.70;25.70;;;;;;;6.54;82.61;97946.00;5035716;28;20104;-77
2023/04/02 07:36:35;;;;;;;23.42;22.52;;;;;;;6.44;82.69;97940.34;5036293;28;20037;-78
2023/04/02 07:39:02;;;;;;;22.05;21.15;;;;;;;6.67;81.87;97940.50;5003787;28;20060;-77
2023/04/02 07:41:27;;;;;;;20.73;19.92;;;;;;;6.52;81.82;97952.59;5036605;28;20052;-76
2023/04/02 07:43:53;;;;;;;18.00;17.30;;;;;;;6.48;81.28;97962.13;5019419;28;20467;-76
2023/04/02 07:46:19;;;;;;;16.38;15.77;;;;;;;6.28;81.11;97958.88;5002536;28;20038;-77
2023/04/02 07:48:44;;;;;;;16.58;15.98;;;;;;;6.38;80.46;97967.19;5031091;28;20115;-78
2023/04/02 07:51:24;;;;;;;16.95;16.35;;;;;;;6.22;81.66;97973.94;4988493;28;20160;-76
2023/04/02 07:53:54;;;;;;;17.90;17.20;;;;;;;6.22;80.29;97980.13;5014306;28;20038;-76
2023/04/02 07:56:20;;;;;;;16.80;16.10;;;;;;;6.22;81.54;97989.97;5016623;28;20504;-77
2023/04/02 07:58:46;;;;;;;21.70;20.90;;;;;;;5.96;81.16;97990.25;5017686;28;20060;-77
2023/04/02 08:01:17;;;;;;;20.38;19.58;;;;;;;5.82;81.70;98002.06;4982514;28;20054;-77
2023/04/02 08:03:43;;;;;;;18.90;18.20;;;;;;;5.75;81.80;98003.97;4995922;28;20133;-77
2023/04/02 08:06:08;;;;;;;18.00;17.30;;;;;;;5.79;80.85;98005.19;4997810;28;20032;-76
2023/04/02 08:08:34;;;;;;;19.17;18.17;;;;;;;5.82;81.23;98020.75;5005297;28;20025;-76
2023/04/02 08:10:59;;;;;;;25.67;24.67;;;;;;;5.52;82.13;98025.94;5005428;28;20395;-77
2023/04/02 08:13:25;;;;;;;23.35;22.45;;;;;;;5.77;82.04;98012.56;5014355;28;20045;-77
2023/04/02 08:15:50;;;;;;;16.25;15.55;;;;;;;5.51;81.26;98033.13;4984849;28;20036;-77
2023/04/02 08:18:16;;;;;;;14.05;13.55;;;;;;;5.67;81.08;98038.97;4993939;28;20053;-76
2023/04/02 08:20:41;;;;;;;16.70;16.10;;;;;;;5.54;80.73;98046.03;5003456;28;20025;-77
2023/04/02 08:23:15;;;;;;;17.70;17.00;;;;;;;5.60;81.23;98045.16;5023586;28;20099;-75
2023/04/02 08:25:41;;;;;;;17.40;16.70;;;;;;;5.71;81.54;98051.69;4988411;28;20052;-78
2023/04/02 08:28:06;;;;;;;20.27;19.48;;;;;;;5.69;81.49;98058.28;5000154;28;20523;-76
2023/04/02 08:30:32;;;;;;;19.75;19.02;;;;;;;5.89;81.27;98061.63;5015938;28;20043;-76
2023/04/02 08:32:57;;;;;;;16.23;15.63;;;;;;;5.60;80.87;98058.53;5032667;28;20116;-76
2023/04/02 08:35:23;;;;;;;19.45;18.75;;;;;;;5.59;82.53;98070.25;5001983;28;20447;-75
2023/04/02 08:37:48;;;;;;;21.48;20.67;;;;;;;5.59;82.58;98064.91;4995401;28;20377;-75
2023/04/02 08:40:34;;;;;;;20.20;19.20;;;;;;;5.72;82.91;98073.88;4980183;28;20133;-76
2023/04/02 08:43:27;;;;;;;21.70;20.90;;;;;;;5.68;81.88;98080.66;5012502;28;20030;-75
2023/04/02 08:46:26;;;;;;;22.98;22.08;;;;;;;5.69;82.16;98090.34;5003632;28;20514;-75
2023/04/02 08:48:58;;;;;;;28.88;27.77;;;;;;;6.07;82.55;98086.56;5015842;28;20029;-75
2023/04/02 08:51:29;;;;;;;27.33;26.25;;;;;;;6.00;82.20;98098.34;4987052;28;20026;-75
2023/04/02 08:54:01;;;;;;;25.40;24.40;;;;;;;6.02;81.63;98094.41;4986374;28;20067;-75
2023/04/02 08:56:33;;;;;;;23.67;22.77;;;;;;;5.98;81.24;98105.75;4998577;28;20407;-75
2023/04/02 08:59:02;;;;;;;24.27;23.38;;;;;;;6.07;82.62;98107.13;5012520;28;20053;-74
2023/04/02 09:01:35;;;;;;;22.73;21.83;;;;;;;6.02;80.66;98117.69;4998076;28;20026;-75
2023/04/02 09:04:02;;;;;;;22.23;21.35;;;;;;;6.11;81.25;98111.03;5032209;28;20037;-75
2023/04/02 09:06:28;;;;;;;21.25;20.40;;;;;;;6.16;81.31;98119.22;5019289;28;20025;-75
2023/04/02 09:08:54;;;;;;;22.23;21.30;;;;;;;6.22;80.49;98119.16;5019036;28;20037;-75
2023/04/02 09:11:20;;;;;;;24.60;23.70;;;;;;;6.29;82.32;98119.09;5001662;28;20022;-75
2023/04/02 09:13:47;;;;;;;19.52;18.83;;;;;;;6.34;81.13;98121.94;5014589;28;20088;-76
2023/04/02 09:16:16;;;;;;;20.23;19.42;;;;;;;6.50;81.60;98121.38;5015128;28;20102;-75
2023/04/02 09:18:44;;;;;;;15.25;14.65;;;;;;;6.38;79.64;98139.16;5003234;28;20038;-75
2023/04/02 09:21:27;;;;;;;13.75;13.25;;;;;;;6.21;80.84;98138.06;5016598;28;20017;-75
2023/04/02 09:23:53;;;;;;;16.58;15.98;;;;;;;6.22;81.04;98145.06;5018987;28;20113;-75
2023/04/02 09:26:24;;;;;;;14.50;13.95;;;;;;;6.00;80.27;98151.78;4983575;28;20038;-75
2023/04/02 09:28:50;;;;;;;15.05;14.45;;;;;;;6.19;79.75;98156.19;4997044;28;20053;-75
2023/04/02 09:31:22;;;;;;;15.48;14.88;;;;;;;6.10;80.06;98157.50;5011675;28;20490;-75
2023/04/02 09:33:49;;;;;;;13.27;12.77;;;;;;;5.99;79.71;98171.56;5012546;28;20069;-75
2023/04/02 09:36:31;;;;;;;13.15;12.65;;;;;;;5.91;80.18;98174.47;5000531;28;20060;-75
2023/04/02 09:39:20;;;;;;;16.85;16.25;;;;;;;5.94;80.32;98176.72;5001214;28;20037;-76
2023/04/02 09:41:46;;;;;;;15.85;15.15;;;;;;;5.74;80.11;98181.34;5008487;28;20049;-75
2023/04/02 09:44:25;;;;;;;15.68;15.07;;;;;;;5.77;80.58;98184.41;5023379;28;20029;-75
2023/04/02 09:46:54;;;;;;;11.90;11.45;;;;;;;5.67;79.99;98199.25;5022422;28;20091;-75
2023/04/02 09:49:23;;;;;;;12.38;11.88;;;;;;;5.88;80.17;98202.44;5027748;28;20116;-75
2023/04/02 09:52:16;;;;;;;14.38;13.82;;;;;;;5.96;79.54;98198.72;5019556;28;20041;-75
2023/04/02 09:54:42;;;;;;;16.67;16.08;;;;;;;6.05;80.89;98200.09;5001618;28;20043;-75
2023/04/02 09:57:19;;;;;;;15.10;14.52;;;;;;;6.12;80.71;98216.91;4990707;28;20117;-75
2023/04/02 09:59:45;;;;;;;14.23;13.63;;;;;;;5.95;80.16;98218.47;5008506;28;20034;-75
2023/04/02 10:02:25;;;;;;;14.50;13.77;;;;;;;5.82;80.12;98229.19;5003684;28;20120;-74
2023/04/02 10:04:51;;;;;;;12.27;11.68;;;;;;;5.67;79.43;98226.78;5001554;28;20048;-75
2023/04/02 10:07:36;;;;;;;14.90;14.20;;;;;;;5.78;80.02;98228.81;5031432;28;20029;-75
2023/04/02 10:10:17;;;;;;;14.57;13.98;;;;;;;5.71;80.51;98238.69;5001445;28;20049;-75
2023/04/02 10:12:44;;;;;;;15.10;14.50;;;;;;;5.83;79.88;98241.53;5019110;28;20052;-75
2023/04/02 10:15:21;;;;;;;15.73;15.02;;;;;;;5.66;79.30;98238.50;5022401;28;20032;-75
2023/04/02 10:17:56;;;;;;;16.95;16.30;;;;;;;5.74;80.68;98248.94;5003240;28;20034;-75
2023/04/02 10:20:25;;;;;;;17.40;16.70;;;;;;;5.85;80.60;98250.16;4999141;28;20555;-75
2023/04/02 10:22:51;;;;;;;12.70;12.20;;;;;;;5.69;80.05;98253.28;5017420;28;20047;-75
2023/04/02 10:25:19;;;;;;;13.02;12.52;;;;;;;6.01;79.05;98260.38;5020129;28;20356;-75
2023/04/02 10:28:08;;;;;;;9.75;9.35;;;;;;;5.73;78.81;98266.00;5024587;28;20030;-75
2023/04/02 10:30:52;;;;;;;10.10;9.70;;;;;;;5.79;79.50;98261.69;4991525;28;20029;-76
2023/04/02 10:33:23;;;;;;;8.13;7.82;;;;;;;5.62;79.43;98272.03;5022168;28;20041;-76
2023/04/02 10:36:01;;;;;;;9.75;9.38;;;;;;;5.77;79.41;98274.41;5012297;28;20170;-76
2023/04/02 10:38:54;;;;;;;8.48;8.07;;;;;;;5.75;78.99;98276.47;5007792;28;20037;-75
2023/04/02 10:41:41;;;;;;;9.98;9.57;;;;;;;6.01;80.25;98276.41;4994704;28;20492;-75
2023/04/02 10:44:12;;;;;;;;;;;;;;;6.02;79.70;98280.72;5006750;28;20445;-76
2023/04/02 10:46:47;;;;;;;13.02;12.52;;;;;;;6.06;78.62;98279.25;5000958;28;20372;-76
2023/04/02 10:49:15;;;;;;;11.18;10.68;;;;;;;6.03;78.16;98290.38;5002014;28;20480;-76
2023/04/02 10:51:55;;;;;;;9.70;9.30;;;;;;;5.68;79.16;98294.38;5019990;28;20025;-75
2023/04/02 10:54:32;;;;;;;11.60;11.13;;;;;;;5.75;80.05;98297.84;5013170;28;20041;-74
2023/04/02 10:57:27;;;;;;;12.70;12.20;;;;;;;5.65;80.52;98302.84;5012237;28;20029;-75
2023/04/02 11:00:05;;;;;;;17.10;16.30;;;;;;;5.82;80.51;98306.66;4983624;28;20045;-76
2023/04/02 11:02:35;;;;;;;13.05;12.45;;;;;;;5.45;79.61;98303.72;4996821;28;20037;-75
2023/04/02 11:05:10;;;;;;;11.40;10.90;;;;;;;5.55;78.67;98322.78;5000743;28;20037;-76
2023/04/02 11:07:45;;;;;;;15.68;14.98;;;;;;;5.43;80.88;98332.47;4998209;28;20034;-76
2023/04/02 11:10:14;;;;;;;19.17;18.38;;;;;;;5.53;79.53;98343.53;5005945;28;20490;-76
2023/04/02 11:12:49;;;;;;;20.35;19.45;;;;;;;5.82;80.85;98333.41;4998877;28;20030;-75
2023/04/02 11:15:17;;;;;;;19.15;18.38;;;;;;;5.84;80.38;98331.31;5022354;28;20045;-75
2023/04/02 11:17:43;;;;;;;18.75;17.95;;;;;;;5.87;79.33;98333.63;5007405;28;20085;-76
2023/04/02 11:21:00;;;;;;;12.85;12.25;;;;;;;5.68;78.63;98345.16;5019886;28;20033;-75
2023/04/02 11:23:34;;;;;;;16.50;15.80;;;;;;;5.47;79.56;98348.91;4959485;28;20134;-74
2023/04/02 11:26:30;;;;;;;18.60;17.80;;;;;;;5.90;79.54;98355.41;4989020;28;20041;-76
2023/04/02 11:29:02;;;;;;;11.75;11.18;;;;;;;6.20;76.67;98350.34;5023630;28;20041;-76
2023/04/02 11:31:27;;;;;;;8.63;8.23;;;;;;;6.38;76.88;98358.47;5003253;28;20033;-75
2023/04/02 11:33:53;;;;;;;10.23;9.82;;;;;;;6.50;77.24;98354.09;5016556;28;20044;-76
2023/04/02 11:36:49;;;;;;;6.93;6.63;;;;;;;5.86;78.13;98369.41;5037656;28;20037;-76
2023/04/02 11:40:07;;;;;;;7.55;7.22;;;;;;;5.86;77.87;98374.75;5004316;28;20039;-75
2023/04/02 11:42:34;;;;;;;8.80;8.40;;;;;;;5.85;77.91;98383.78;4984246;28;20203;-75
2023/04/02 11:45:22;;;;;;;9.90;9.50;;;;;;;5.88;77.82;98378.03;5016583;28;20034;-75
2023/04/02 11:48:00;;;;;;;9.13;8.73;;;;;;;5.80;77.97;98396.91;4996798;28;20057;-79
2023/04/02 11:50:30;;;;;;;9.30;8.80;;;;;;;5.58;78.71;98394.50;5006406;28;20048;-76
2023/04/02 11:53:26;;;;;;;9.30;8.90;;;;;;;5.49;78.47;98405.59;5022920;28;20045;-76
2023/04/02 11:56:14;;;;;;;8.65;8.25;;;;;;;5.57;79.02;98408.06;4994983;28;20049;-76
2023/04/02 11:58:58;;;;;;;8.15;7.75;;;;;;;5.70;77.50;98401.88;4992754;28;20038;-77